METAR Data
IDs: Format: Raw Decoded Include TAF

Data at: 0100 UTC 12 May 2021

KIIB 120055Z AUTO 00000KT 10SM CLR 13/M03 A3034 RMK AO2 T01281026
KIIB 120035Z AUTO 06004KT 10SM CLR 14/M04 A3034 RMK AO2 T01381038
KIIB 120015Z AUTO 10004KT 10SM CLR 15/M04 A3034 RMK AO2 T01451038
KIIB 112355Z AUTO 06004KT 10SM CLR 15/M04 A3033 RMK AO2 T01501045
KIIB 112335Z AUTO 08005KT 10SM CLR 15/M04 A3033 RMK AO2 T01501044
KIIB 112315Z AUTO 13005KT 10SM CLR 15/M04 A3033 RMK AO2 T01531036
KIIB 112255Z AUTO 00000KT 10SM CLR 15/M04 A3033 RMK AO2 T01451044
KIIB 112235Z AUTO 09003KT 10SM CLR 16/M04 A3032 RMK AO2 T01551039
KIIB 112215Z AUTO 04004KT 10SM CLR 16/M04 A3032 RMK AO2 T01571042
KIIB 112155Z AUTO 00000KT 10SM CLR 16/M04 A3032 RMK AO2 T01591041
KIIB 112135Z AUTO 04003KT 10SM CLR 16/M04 A3032 RMK AO2 T01591040
KIIB 112115Z AUTO 06009KT 10SM CLR 16/M03 A3032 RMK AO2 T01561034
KIIB 112055Z AUTO 09003G16KT 10SM CLR 16/M03 A3032 RMK AO2 T01561033
KIIB 112035Z AUTO 02004KT 10SM CLR 15/M04 A3032 RMK AO2 T01531040
KIIB 112015Z AUTO 07008KT 10SM CLR 15/M04 A3032 RMK AO2 T01521043
KIIB 111955Z AUTO 07010G15KT 10SM CLR 16/M02 A3032 RMK AO2 T01571016
KIIB 111935Z AUTO 06007G14KT 10SM CLR 15/M03 A3033 RMK AO2 T01481030
KIIB 111915Z AUTO 02004KT 10SM CLR 15/M03 A3033 RMK AO2 T01501029
KIIB 111855Z AUTO 02010G16KT 10SM CLR 15/M03 A3032 RMK AO2 T01451034
KIIB 111835Z AUTO 03009G15KT 10SM CLR 14/M03 A3033 RMK AO2 T01441030
KIIB 111815Z AUTO 07009G17KT 10SM CLR 14/M02 A3034 RMK AO2 T01391025
KIIB 111755Z AUTO 03009G16KT 10SM CLR 14/M03 A3036 RMK AO2 T01351030
KIIB 111735Z AUTO 07008KT 10SM CLR 14/M02 A3037 RMK AO2 T01351025
KIIB 111715Z AUTO 04012G15KT 10SM SCT065 14/M02 A3038 RMK AO2 T01351020
KIIB 111655Z AUTO 05005G14KT 10SM CLR 13/M04 A3039 RMK AO2 T01301039
KIIB 111635Z AUTO 04008KT 10SM CLR 12/M04 A3039 RMK AO2 T01241041
KIIB 111615Z AUTO 07007G14KT 10SM CLR 13/M03 A3039 RMK AO2 T01261032
KIIB 111555Z AUTO 06009G14KT 10SM CLR 12/M03 A3039 RMK AO2 T01221033
KIIB 111535Z AUTO 06008G15KT 10SM CLR 12/M03 A3039 RMK AO2 T01201029
KIIB 111515Z AUTO 07005G08KT 10SM CLR 12/M02 A3039 RMK AO2 T01171022
KIIB 111455Z AUTO 08005KT 10SM CLR 12/M02 A3039 RMK AO2 T01151023
KIIB 111435Z AUTO 09008KT 10SM CLR 11/M02 A3039 RMK AO2 T01071017
KIIB 111415Z AUTO 08006KT 10SM CLR 10/M02 A3038 RMK AO2 T01021017
KIIB 111355Z AUTO 07008KT 10SM CLR 10/M01 A3038 RMK AO2 T00971011
KIIB 111335Z AUTO 07008KT 10SM CLR 09/00 A3038 RMK AO2 T00911002
KIIB 111315Z AUTO 06006KT 10SM CLR 08/00 A3038 RMK AO2 T00841005
KIIB 111255Z AUTO 06005KT 10SM CLR 07/00 A3037 RMK AO2 T00730001
KIIB 111235Z AUTO 05007KT 10SM CLR 06/00 A3036 RMK AO2 T00631001
KIIB 111215Z AUTO 05005KT 10SM CLR 05/00 A3035 RMK AO2 T00510000
KIIB 111155Z AUTO 04006KT 10SM CLR 04/00 A3034 RMK AO2 T00371001
KIIB 111135Z AUTO 04005KT 10SM CLR 02/M01 A3034 RMK AO2 T00241007
KIIB 111115Z AUTO 04005KT 10SM CLR 01/M01 A3032 RMK AO2 T00131012
KIIB 111055Z AUTO 06005KT 10SM CLR 02/M01 A3032 RMK AO2 T00151015
KIIB 111035Z AUTO 05006KT 10SM CLR 02/M01 A3032 RMK AO2 T00171014
KIIB 111015Z AUTO 05007KT 10SM CLR 02/M01 A3030 RMK AO2 T00171015
KIIB 110955Z AUTO 05006KT 10SM CLR 02/M01 A3030 RMK AO2 T00181013
KIIB 110935Z AUTO 05006KT 10SM CLR 02/M01 A3030 RMK AO2 T00201011
KIIB 110915Z AUTO 04007KT 10SM CLR 02/M01 A3029 RMK AO2 T00201008
KIIB 110855Z AUTO 03007KT 10SM CLR 02/M01 A3029 RMK AO2 T00221007
KIIB 110835Z AUTO 04005KT 10SM CLR 03/M01 A3028 RMK AO2 T00281008
KIIB 110815Z AUTO 05007KT 10SM CLR 03/M01 A3028 RMK AO2 T00341006
KIIB 110755Z AUTO 05005KT 10SM CLR 04/00 A3028 RMK AO2 T00351005
KIIB 110735Z AUTO 04007KT 10SM CLR 04/00 A3028 RMK AO2 T00411001
KIIB 110715Z AUTO 04007KT 10SM SCT075 05/00 A3026 RMK AO2 T00460001
KIIB 110655Z AUTO 02007KT 10SM BKN075 04/01 A3026 RMK AO2 T00350008
KIIB 110635Z AUTO 03006KT 10SM SCT075 03/01 A3026 RMK AO2 T00310010
KIIB 110615Z AUTO 03007KT 10SM CLR 03/01 A3025 RMK AO2 T00330010
KIIB 110555Z AUTO 04004KT 10SM CLR 04/01 A3025 RMK AO2 T00430012
KIIB 110535Z AUTO 04004KT 10SM CLR 04/01 A3025 RMK AO2 T00420011
KIIB 110515Z AUTO 03005KT 10SM CLR 05/01 A3024 RMK AO2 T00520013
KIIB 110455Z AUTO 04004KT 10SM CLR 06/01 A3024 RMK AO2 T00570010
KIIB 110435Z AUTO 05005KT 10SM CLR 06/01 A3024 RMK AO2 T00570013
KIIB 110415Z AUTO 04006KT 10SM CLR 07/02 A3024 RMK AO2 T00680015
KIIB 110355Z AUTO 04007KT 10SM SCT075 SCT100 08/02 A3024 RMK AO2 T00760017
KIIB 110335Z AUTO 03006KT 10SM SCT075 SCT100 07/03 A3023 RMK AO2 T00710026
KIIB 110315Z AUTO 04005KT 10SM BKN100 07/03 A3022 RMK AO2 T00730027
KIIB 110255Z AUTO 03006KT 10SM OVC090 08/03 A3021 RMK AO2 T00840031
KIIB 110235Z AUTO 02005KT 10SM BKN070 OVC090 09/03 A3020 RMK AO2 T00920031
KIIB 110215Z AUTO 03006KT 10SM BKN070 OVC080 10/03 A3020 RMK AO2 T00970032
KIIB 110155Z AUTO 02006KT 10SM OVC070 10/03 A3019 RMK AO2 T00990030
KIIB 110135Z AUTO 03006KT 10SM OVC070 10/03 A3018 RMK AO2 T01010034
KIIB 110115Z AUTO 04005KT 10SM SCT060 OVC070 11/03 A3017 RMK AO2 T01060029
KIIB 110055Z AUTO 06009KT 10SM BKN060 OVC070 11/03 A3017 RMK AO2 T01080026
KIIB 110035Z AUTO 05008KT 10SM BKN060 BKN070 OVC090 11/03 A3016 RMK AO2 T01110031
KIIB 110015Z AUTO 05008KT 10SM SCT060 BKN090 12/03 A3016 RMK AO2 T01150026
KIIB 102355Z AUTO 04011KT 10SM SCT060 BKN070 OVC090 12/03 A3015 RMK AO2 T01170026
KIIB 102335Z AUTO 04012G16KT 10SM BKN060 OVC070 12/02 A3015 RMK AO2 T01180024
KIIB 102315Z AUTO 03011G16KT 10SM BKN060 BKN070 OVC085 12/03 A3014 RMK AO2 T01220030
KIIB 102255Z AUTO 03012G16KT 10SM OVC070 13/03 A3014 RMK AO2 T01250025
KIIB 102235Z AUTO 03015G18KT 10SM BKN070 BKN090 OVC110 13/03 A3014 RMK AO2 T01310027
KIIB 102215Z AUTO 05010KT 10SM SCT070 BKN090 14/03 A3013 RMK AO2 T01350028
KIIB 102155Z AUTO 04011KT 10SM BKN080 BKN095 14/03 A3012 RMK AO2 T01380031
KIIB 102135Z AUTO 06010KT 10SM OVC080 14/03 A3012 RMK AO2 T01400029
KIIB 102115Z AUTO 04010KT 10SM SCT055 BKN070 OVC085 14/03 A3012 RMK AO2 T01350030
KIIB 102055Z AUTO 02011KT 10SM SCT055 BKN070 BKN090 14/03 A3012 RMK AO2 T01350029
KIIB 102035Z AUTO 01007KT 10SM SCT070 SCT090 BKN110 15/02 A3012 RMK AO2 T01460020
KIIB 102015Z AUTO 06006KT 10SM SCT055 BKN095 OVC110 15/03 A3012 RMK AO2 T01500027
KIIB 101955Z AUTO 00000KT 10SM SCT055 OVC095 15/02 A3013 RMK AO2 T01450015
KIIB 101935Z AUTO 35008KT 10SM BKN055 BKN070 BKN095 15/02 A3013 RMK AO2 T01470024
KIIB 101915Z AUTO 08004KT 10SM SCT065 SCT085 16/03 A3013 RMK AO2 T01550029
KIIB 101855Z AUTO 03007KT 10SM SCT049 SCT075 SCT085 16/04 A3013 RMK AO2 T01550038
KIIB 101835Z AUTO 01006G14KT 10SM SCT075 SCT085 15/03 A3013 RMK AO2 T01500032
KIIB 101815Z AUTO 06006KT 10SM CLR 15/04 A3013 RMK AO2 T01450040
KIIB 101755Z AUTO 05008KT 10SM CLR 14/04 A3013 RMK AO2 T01410043
KIIB 101735Z AUTO 06009KT 10SM CLR 14/05 A3014 RMK AO2 T01370049
KIIB 101715Z AUTO 04008KT 10SM SCT060 SCT070 SCT080 13/05 A3014 RMK AO2 T01300049
KIIB 101655Z AUTO 01008KT 10SM SCT060 BKN075 BKN095 13/05 A3014 RMK AO2 T01330046
KIIB 101635Z AUTO 02007KT 10SM SCT055 BKN075 OVC095 12/04 A3014 RMK AO2 T01240042
KIIB 101615Z AUTO 04007KT 10SM SCT055 BKN075 OVC085 12/04 A3014 RMK AO2 T01240043
KIIB 101555Z AUTO 36007KT 10SM SCT075 BKN085 OVC100 12/05 A3013 RMK AO2 T01150047
KIIB 101535Z AUTO 01008KT 10SM SCT075 BKN095 11/03 A3012 RMK AO2 T01130033
KIIB 101515Z AUTO 05004KT 10SM BKN095 BKN120 11/03 A3011 RMK AO2 T01140032
KIIB 101455Z AUTO 11004KT 10SM SCT060 SCT080 SCT095 11/04 A3012 RMK AO2 T01130037
KIIB 101435Z AUTO 09005KT 10SM SCT039 SCT049 BKN080 09/03 A3012 RMK AO2 T00880032
KIIB 101415Z AUTO 05006KT 10SM SCT070 BKN080 09/03 A3013 RMK AO2 T00860026
KIIB 101355Z AUTO 02007KT 10SM SCT065 BKN080 09/03 A3013 RMK AO2 T00850029
KIIB 101335Z AUTO 01008KT 10SM SCT065 OVC085 08/03 A3013 RMK AO2 T00760027
KIIB 101315Z AUTO 02004KT 10SM SCT065 BKN085 BKN100 08/02 A3012 RMK AO2 T00750022